CheckWX is a tool to help pilots better visualize weather data.  It is not intended as a substitute for an official pre-flight weather briefing.

10:10:50 UTC

EGUB METAR
RAF Benson Airport
Benson, United Kingdom
Current

1 hour ago

EGUB 220850Z AUTO 17009KT 9999 // FEW060/// BKN100/// 19/16 Q1002
Observed
Sep-22 @ 08:50 UTC
Wind
  • 170° at 9 KTS
Visibility
10,000+ meters
Flight Rules
VFR
Cloud Levels
  • Few at 6,000' AGL
  • Broken at 10,000' AGL
Temperature
19°C / 66°F
Dewpoint
16°C / 61°F
Humidity
83%
Altimeter
29.59" Hg
Pressure
1001.92 hPa
Previous

2 hours ago

EGUB 220750Z AUTO 14010KT 9999 // FEW120/// 19/16 Q1002
Observed
Sep-22 @ 07:50 UTC
Wind
  • 140° at 10 KTS
Visibility
10,000+ meters
Flight Rules
VFR
Cloud Levels
  • Few at 12,000' AGL
Temperature
19°C / 66°F
Dewpoint
16°C / 61°F
Humidity
83%
Altimeter
29.59" Hg
Pressure
1001.92 hPa
Previous

3 hours ago

EGUB 220650Z AUTO 13010KT 9999 // FEW050/// SCT110/// 18/15 Q1002
Observed
Sep-22 @ 06:50 UTC
Wind
  • 130° at 10 KTS
Visibility
10,000+ meters
Flight Rules
VFR
Cloud Levels
  • Few at 5,000' AGL
  • Scattered at 11,000' AGL
Temperature
18°C / 64°F
Dewpoint
15°C / 59°F
Humidity
83%
Altimeter
29.59" Hg
Pressure
1001.92 hPa